Time;durP1;ratioP1;P1;durP2;ratioP2;P2;SDS_P1;SDS_P2;PMS_P1;PMS_P2;Temp;Humidity;BMP_temperature;BMP_pressure;BME280_temperature;BME280_humidity;BME280_pressure;Samples;Min_cycle;Max_cycle;Signal;HPM_P1;HPM_P2
2022/09/21 00:01:28;;;;;;;7.03;3.90;;;14.30;71.70;;;17.05;53.88;102503.41;5053991;28;20647;-59
2022/09/21 00:03:59;;;;;;;7.97;4.43;;;14.30;72.10;;;17.03;53.86;102503.59;5054705;28;20197;-58
2022/09/21 00:06:31;;;;;;;8.90;4.30;;;14.30;72.20;;;17.01;54.00;102502.94;5054438;28;20201;-58
2022/09/21 00:08:58;;;;;;;8.27;4.00;;;14.20;72.30;;;17.02;54.32;102499.25;5054247;28;20255;-58
2022/09/21 00:11:28;;;;;;;6.13;4.13;;;14.20;72.40;;;17.03;54.27;102498.28;5054636;28;20204;-57
2022/09/21 00:14:01;;;;;;;7.53;4.30;;;14.30;72.60;;;17.05;54.12;102506.91;5054541;28;20213;-57
2022/09/21 00:16:30;;;;;;;6.23;4.27;;;14.30;72.20;;;17.02;53.80;102499.25;5053597;28;20214;-58
2022/09/21 00:18:58;;;;;;;9.90;4.43;;;14.20;72.20;;;17.03;54.08;102505.41;5054108;28;20194;-59
2022/09/21 00:21:27;;;;;;;6.50;4.40;;;14.20;72.30;;;17.01;54.43;102502.94;5053780;28;20189;-61
2022/09/21 00:23:54;;;;;;;6.50;4.10;;;14.20;72.60;;;17.02;54.34;102498.47;5054298;28;20205;-58
2022/09/21 00:26:24;;;;;;;9.37;4.80;;;14.20;72.60;;;17.05;54.08;102509.56;5054279;28;20221;-59
2022/09/21 00:28:53;;;;;;;8.03;4.37;;;14.30;72.80;;;17.08;54.22;102503.91;5053924;28;20186;-59
2022/09/21 00:31:22;;;;;;;6.97;4.03;;;14.30;72.80;;;17.12;54.12;102509.69;5053551;28;20574;-60
2022/09/21 00:33:50;;;;;;;7.40;4.33;;;14.30;72.60;;;17.17;53.94;102510.00;5052537;28;20275;-60
2022/09/21 00:36:20;;;;;;;7.07;4.30;;;14.40;72.40;;;17.20;54.11;102507.84;5053857;28;20332;-58
2022/09/21 00:38:50;;;;;;;8.90;4.67;;;14.40;72.10;;;17.24;53.78;102514.47;5053760;28;20194;-60
2022/09/21 00:41:19;;;;;;;6.87;4.63;;;14.50;72.10;;;17.29;53.56;102512.13;5052653;28;20197;-59
2022/09/21 00:44:07;;;;;;;7.60;4.23;;;14.50;71.90;;;17.30;53.78;102508.47;5053886;28;20279;-59
2022/09/21 00:46:39;;;;;;;6.67;4.30;;;14.60;71.80;;;17.29;53.51;102506.78;5053383;28;20175;-59
2022/09/21 00:49:07;;;;;;;6.00;4.57;;;14.60;71.00;;;17.28;53.44;102515.75;5053717;28;20182;-58
2022/09/21 00:51:35;;;;;;;7.07;4.00;;;14.60;71.10;;;17.24;53.44;102509.13;5052791;28;20186;-58
2022/09/21 00:54:11;;;;;;;7.33;4.53;;;14.60;71.00;;;17.20;53.37;102510.50;5053240;28;20244;-57
2022/09/21 00:56:40;;;;;;;8.07;4.77;;;14.60;70.70;;;17.20;53.26;102509.66;5053026;28;20217;-57
2022/09/21 00:59:12;;;;;;;6.97;3.77;;;14.60;70.40;;;17.19;53.34;102506.16;5053100;28;20556;-60
2022/09/21 01:01:41;;;;;;;6.77;3.90;;;14.50;70.90;;;17.16;52.88;102517.19;5052700;28;20225;-58
2022/09/21 01:04:10;;;;;;;7.53;4.80;;;14.50;70.40;;;17.10;53.35;102515.19;5053064;28;20220;-60
2022/09/21 01:06:39;;;;;;;4.33;3.83;;;14.40;71.10;;;17.03;53.22;102511.56;5053095;28;20255;-56
2022/09/21 01:09:07;;;;;;;4.93;3.70;;;14.40;70.80;;;16.97;53.11;102517.59;5053236;28;20312;-56
2022/09/21 01:11:53;;;;;;;4.30;3.37;;;14.30;70.60;;;16.87;53.49;102517.81;5052516;28;20457;-58
2022/09/21 01:14:44;;;;;;;9.23;4.17;;;14.20;71.00;;;16.81;53.59;102517.63;5053186;28;20181;-58
2022/09/21 01:17:21;;;;;;;8.00;4.30;;;14.10;71.30;;;16.78;53.88;102512.69;5052876;28;20289;-59
2022/09/21 01:20:29;;;;;;;5.60;4.30;;;14.00;71.60;;;16.72;53.86;102518.66;5052850;28;20197;-58
2022/09/21 01:23:15;;;;;;;8.00;3.90;;;14.00;72.00;;;16.70;54.20;102512.69;5019519;28;20225;-59
2022/09/21 01:26:03;;;;;;;5.70;3.90;;;13.90;72.20;;;16.69;54.09;102511.88;5052831;28;20221;-58
2022/09/21 01:29:00;;;;;;;7.07;4.07;;;13.90;72.40;;;16.67;54.16;102521.84;5052532;28;20208;-60
2022/09/21 01:31:35;;;;;;;7.80;4.20;;;13.90;72.50;;;16.69;54.20;102526.97;5054550;28;20247;-59
2022/09/21 01:34:10;;;;;;;5.43;3.93;;;13.90;72.10;;;16.64;53.94;102518.72;5053073;28;20268;-57
2022/09/21 01:36:41;;;;;;;6.27;3.70;;;13.90;72.50;;;16.63;54.26;102519.69;5051623;28;20205;-58
2022/09/21 01:39:13;;;;;;;5.13;3.87;;;13.80;72.30;;;16.59;54.10;102518.38;5052686;28;20659;-59
2022/09/21 01:41:44;;;;;;;7.60;4.17;;;13.80;72.20;;;16.56;54.45;102524.03;5052231;28;20252;-57
2022/09/21 01:44:18;;;;;;;7.17;3.67;;;13.80;72.80;;;16.50;54.10;102524.66;5052321;28;20197;-57
2022/09/21 01:46:47;;;;;;;8.23;3.23;;;13.70;72.30;;;16.47;54.56;102519.72;5052564;28;20192;-59
2022/09/21 01:49:21;;;;;;;4.73;3.63;;;13.70;72.80;;;16.40;54.80;102527.53;5052921;28;20193;-57
2022/09/21 01:51:57;;;;;;;5.67;3.80;;;13.60;72.90;;;16.36;54.58;102518.22;5053005;28;20204;-58
2022/09/21 01:54:35;;;;;;;6.30;3.30;;;13.60;73.10;;;16.32;54.54;102527.53;5053250;28;20170;-58
2022/09/21 01:57:14;;;;;;;7.63;3.40;;;13.50;73.30;;;16.25;54.83;102522.06;5052514;28;20190;-59
2022/09/21 01:59:51;;;;;;;7.70;3.80;;;13.50;73.10;;;16.16;54.42;102516.94;5052308;28;20586;-58
2022/09/21 02:02:25;;;;;;;5.30;3.50;;;13.40;73.20;;;16.10;55.05;102529.03;5051998;28;20278;-58
2022/09/21 02:04:53;;;;;;;8.40;4.23;;;13.30;73.40;;;16.04;55.08;102523.56;5052349;28;20205;-59
2022/09/21 02:07:21;;;;;;;5.50;3.67;;;13.30;73.80;;;15.99;55.16;102529.38;5052322;28;20194;-58
2022/09/21 02:09:48;;;;;;;6.03;3.33;;;13.20;74.30;;;15.98;56.07;102533.03;5052090;28;20368;-57
2022/09/21 02:12:15;;;;;;;3.87;3.07;;;13.20;74.60;;;15.99;55.95;102531.19;5051701;28;20719;-58
2022/09/21 02:14:54;;;;;;;7.70;3.50;;;13.20;74.80;;;16.00;55.71;102522.22;5052083;28;20243;-61
2022/09/21 02:17:37;;;;;;;6.17;3.30;;;13.20;75.00;;;16.03;55.83;102525.38;5052118;28;20290;-58
2022/09/21 02:20:18;;;;;;;5.53;3.60;;;13.20;74.70;;;16.05;55.63;102531.34;5052879;28;20178;-58
2022/09/21 02:23:03;;;;;;;6.10;3.83;;;13.30;74.90;;;16.08;55.90;102535.50;5051647;28;20283;-58
2022/09/21 02:25:43;;;;;;;5.20;3.53;;;13.30;74.60;;;16.06;55.43;102530.38;5051911;28;20612;-60
2022/09/21 02:28:29;;;;;;;6.10;3.80;;;13.30;74.10;;;15.99;55.30;102532.03;5051321;28;20499;-58
2022/09/21 02:31:12;;;;;;;5.57;3.43;;;13.20;73.90;;;15.93;54.94;102530.03;5051169;28;20239;-59
2022/09/21 02:33:52;;;;;;;5.77;3.60;;;13.20;74.00;;;15.85;55.28;102532.69;5051532;28;20237;-58
2022/09/21 02:36:30;;;;;;;7.10;3.53;;;13.10;74.10;;;15.77;55.48;102524.72;5051552;28;20236;-57
2022/09/21 02:39:08;;;;;;;5.00;3.10;;;13.00;74.20;;;15.70;55.41;102531.66;5054052;28;20693;-58
2022/09/21 02:41:44;;;;;;;5.80;3.10;;;13.00;74.40;;;15.66;55.83;102535.66;5055410;28;20216;-57
2022/09/21 02:44:19;;;;;;;6.07;3.47;;;12.90;75.20;;;15.65;56.65;102528.66;5055728;28;20194;-58
2022/09/21 02:46:54;;;;;;;4.07;2.87;;;12.90;75.70;;;15.70;56.29;102526.34;5055651;28;20182;-59
2022/09/21 02:49:28;;;;;;;5.90;3.17;;;12.90;75.90;;;15.74;56.64;102526.84;5055917;28;20191;-58
2022/09/21 02:52:02;;;;;;;9.87;3.33;;;13.00;75.90;;;15.80;56.85;102535.00;5055130;28;20263;-59
2022/09/21 02:54:33;;;;;;;7.30;3.57;;;13.00;75.60;;;15.86;56.51;102537.00;5055294;28;20655;-59
2022/09/21 02:57:02;;;;;;;5.73;3.67;;;13.10;75.60;;;15.92;56.05;102536.34;5055141;28;20209;-58
2022/09/21 02:59:29;;;;;;;4.73;3.67;;;13.10;75.20;;;15.96;56.20;102540.31;5055167;28;20335;-58
2022/09/21 03:01:58;;;;;;;4.63;3.33;;;13.20;75.40;;;16.01;55.93;102539.81;5054452;28;20244;-58
2022/09/21 03:04:27;;;;;;;5.07;3.50;;;13.20;75.00;;;16.03;56.14;102543.97;5055086;28;20202;-58
2022/09/21 03:06:55;;;;;;;6.23;3.57;;;13.20;75.00;;;16.07;55.96;102534.69;5053905;28;20183;-59
2022/09/21 03:09:23;;;;;;;4.33;3.50;;;13.30;75.00;;;16.13;55.78;102534.03;5054983;28;20571;-59
2022/09/21 03:11:51;;;;;;;4.70;2.70;;;13.30;75.30;;;16.17;55.41;102535.34;5054710;28;20190;-58
2022/09/21 03:14:18;;;;;;;6.33;3.03;;;13.40;74.60;;;16.21;55.46;102539.31;5054933;28;20677;-59
2022/09/21 03:16:45;;;;;;;6.47;3.57;;;13.40;74.10;;;16.24;55.11;102541.66;5054836;28;20221;-60
2022/09/21 03:19:14;;;;;;;6.23;3.30;;;13.50;73.90;;;16.26;55.31;102537.00;5054674;28;20202;-57
2022/09/21 03:21:41;;;;;;;8.97;3.83;;;13.50;73.80;;;16.28;55.45;102547.47;5054374;28;20656;-58
2022/09/21 03:24:11;;;;;;;5.90;3.83;;;13.50;73.90;;;16.31;55.04;102535.69;5054660;28;20198;-58
2022/09/21 03:26:38;;;;;;;3.60;2.97;;;13.50;73.50;;;16.34;54.78;102540.63;5054424;28;20190;-59
2022/09/21 03:29:05;;;;;;;9.47;3.80;;;13.50;73.40;;;16.35;55.16;102539.66;5054555;28;20194;-58
2022/09/21 03:31:33;;;;;;;7.07;4.07;;;13.60;74.20;;;16.40;55.07;102540.00;5054182;28;20186;-58
2022/09/21 03:34:00;;;;;;;4.57;3.13;;;13.60;73.20;;;16.43;54.82;102544.94;5054499;28;20269;-59
2022/09/21 03:36:29;;;;;;;4.73;3.60;;;13.70;73.20;;;16.47;54.77;102551.59;5054410;28;20213;-58
2022/09/21 03:38:56;;;;;;;6.20;3.73;;;13.70;73.10;;;16.48;54.55;102550.59;5054258;28;20189;-57
2022/09/21 03:41:23;;;;;;;5.07;3.10;;;13.70;72.40;;;16.46;54.42;102549.94;5053937;28;20248;-57
2022/09/21 03:43:51;;;;;;;5.23;3.57;;;13.70;72.50;;;16.46;54.06;102552.59;5054182;28;20205;-56
2022/09/21 03:46:18;;;;;;;6.83;4.03;;;13.70;72.20;;;16.42;54.08;102553.94;5054627;28;20248;-55
2022/09/21 03:48:47;;;;;;;5.17;3.83;;;13.70;71.90;;;16.39;53.91;102554.25;5054050;28;20221;-59
2022/09/21 03:51:14;;;;;;;7.73;3.60;;;13.60;72.10;;;16.35;54.18;102555.59;5052669;28;20248;-56
2022/09/21 03:53:43;;;;;;;6.80;3.57;;;13.60;72.10;;;16.27;53.87;102551.94;5054063;28;20595;-58
2022/09/21 03:56:10;;;;;;;5.57;3.27;;;13.50;71.80;;;16.21;54.07;102552.59;5054014;28;20212;-58
2022/09/21 03:58:37;;;;;;;6.43;3.47;;;13.50;72.60;;;16.19;54.55;102556.41;5054166;28;20243;-58
2022/09/21 04:01:05;;;;;;;6.80;3.53;;;13.40;72.80;;;16.15;54.52;102558.59;5053475;28;20602;-57
2022/09/21 04:03:32;;;;;;;6.03;3.40;;;13.40;72.80;;;16.13;54.79;102549.97;5054181;28;20291;-58
2022/09/21 04:06:00;;;;;;;6.90;3.57;;;13.40;73.00;;;16.12;54.83;102564.22;5054007;28;20201;-58
2022/09/21 04:08:27;;;;;;;6.73;3.40;;;13.30;72.90;;;16.13;54.98;102559.75;5053937;28;20590;-60
2022/09/21 04:10:56;;;;;;;7.23;3.50;;;13.30;73.10;;;16.13;54.85;102560.59;5053362;28;20205;-66
2022/09/21 04:13:23;;;;;;;5.50;3.37;;;13.30;72.90;;;16.12;54.86;102558.91;5053400;28;20259;-61
2022/09/21 04:15:50;;;;;;;5.53;3.80;;;13.30;73.10;;;16.12;54.77;102560.75;5053548;28;20244;-59
2022/09/21 04:18:19;;;;;;;5.43;4.20;;;13.30;73.00;;;16.13;54.50;102565.91;5053367;28;20296;-60
2022/09/21 04:20:46;;;;;;;5.83;3.97;;;13.30;72.90;;;16.14;54.56;102556.94;5053488;28;20197;-58
2022/09/21 04:23:13;;;;;;;6.17;4.27;;;13.30;72.90;;;16.13;54.67;102559.75;5052626;28;20226;-58
2022/09/21 04:25:40;;;;;;;5.57;3.73;;;13.30;73.10;;;16.15;54.46;102557.75;5053708;28;20243;-58
2022/09/21 04:28:09;;;;;;;6.80;3.67;;;13.40;72.80;;;16.17;54.46;102553.94;5053515;28;20596;-59
2022/09/21 04:30:36;;;;;;;8.67;3.87;;;13.40;72.80;;;16.16;54.27;102557.59;5053928;28;20224;-59
2022/09/21 04:33:04;;;;;;;8.33;4.20;;;13.40;72.70;;;16.16;54.25;102560.25;5053362;28;20518;-57
2022/09/21 04:35:31;;;;;;;7.17;4.23;;;13.40;72.40;;;16.12;54.08;102553.59;5053203;28;20190;-58
2022/09/21 04:37:59;;;;;;;4.77;4.23;;;13.40;72.20;;;16.10;54.27;102549.47;5052860;28;20210;-58
2022/09/21 04:40:27;;;;;;;7.70;3.97;;;13.30;72.20;;;16.08;54.40;102557.59;5052811;28;20182;-58
2022/09/21 04:42:54;;;;;;;9.00;3.90;;;13.30;72.50;;;16.06;54.72;102554.28;5050877;28;20218;-58
2022/09/21 04:45:23;;;;;;;8.13;4.03;;;13.30;72.70;;;16.07;54.33;102555.94;5052895;28;20186;-59
2022/09/21 04:47:50;;;;;;;5.90;3.90;;;13.30;72.80;;;16.11;54.81;102567.91;5052860;28;20686;-58
2022/09/21 04:50:18;;;;;;;10.17;4.73;;;13.30;72.40;;;16.08;54.30;102562.91;5052830;28;20189;-57
2022/09/21 04:52:46;;;;;;;9.13;4.17;;;13.30;72.40;;;16.05;54.37;102568.56;5052781;28;20221;-56
2022/09/21 04:55:14;;;;;;;6.10;4.30;;;13.30;72.10;;;15.98;54.08;102559.59;5052695;28;20198;-58
2022/09/21 04:57:41;;;;;;;5.70;4.23;;;13.30;72.00;;;15.91;54.18;102566.53;5052434;28;20217;-59
2022/09/21 05:00:10;;;;;;;8.17;4.67;;;13.20;72.20;;;15.82;54.23;102564.03;5052558;28;20256;-58
2022/09/21 05:02:39;;;;;;;7.60;4.23;;;13.10;72.20;;;15.75;54.68;102571.84;5051176;28;20221;-59
2022/09/21 05:05:07;;;;;;;6.13;4.40;;;13.00;72.60;;;15.70;55.48;102574.16;5052713;28;20197;-59
2022/09/21 05:07:34;;;;;;;7.50;4.10;;;12.90;74.60;;;15.69;55.15;102572.47;5052480;28;20651;-60
2022/09/21 05:10:01;;;;;;;9.40;5.00;;;12.90;74.10;;;15.72;55.61;102572.16;5052278;28;20197;-58
2022/09/21 05:12:29;;;;;;;7.47;4.23;;;12.90;74.30;;;15.77;55.54;102577.81;5051796;28;20220;-60
2022/09/21 05:14:57;;;;;;;8.10;4.00;;;13.00;74.30;;;15.78;55.33;102571.53;5052469;28;20186;-59
2022/09/21 05:17:24;;;;;;;8.33;4.77;;;13.00;73.80;;;15.81;55.35;102587.09;5052308;28;20210;-59
2022/09/21 05:19:53;;;;;;;5.87;4.10;;;13.00;73.60;;;15.79;55.03;102578.47;5052151;28;20263;-59
2022/09/21 05:22:21;;;;;;;11.50;4.60;;;13.00;73.40;;;15.79;55.17;102578.47;5051829;28;20694;-58
2022/09/21 05:24:48;;;;;;;7.80;4.07;;;13.00;73.90;;;15.83;55.51;102576.34;5052272;28;20190;-57
2022/09/21 05:27:15;;;;;;;6.60;3.97;;;13.00;73.80;;;15.87;55.35;102581.16;5051974;28;20596;-59
2022/09/21 05:29:44;;;;;;;7.17;4.20;;;13.10;74.00;;;15.93;55.27;102585.81;5051987;28;20606;-60
2022/09/21 05:32:22;;;;;;;9.40;5.30;;;13.10;73.90;;;15.97;55.09;102587.16;5051724;28;20225;-57
2022/09/21 05:35:06;;;;;;;8.93;4.50;;;13.20;73.80;;;16.02;55.23;102595.44;5052006;28;20216;-58
2022/09/21 05:37:49;;;;;;;9.97;5.13;;;13.30;73.10;;;16.06;54.97;102586.16;5052503;28;20267;-61
2022/09/21 05:40:17;;;;;;;9.03;4.93;;;13.40;72.90;;;16.13;55.06;102592.47;5050854;28;20194;-58
2022/09/21 05:42:46;;;;;;;12.07;7.50;;;13.50;72.50;;;16.19;54.49;102591.81;5051271;28;20271;-58
2022/09/21 05:45:16;;;;;;;6.03;4.57;;;13.50;72.40;;;16.23;54.30;102603.78;5051813;28;20244;-58
2022/09/21 05:47:58;;;;;;;9.17;3.73;;;13.60;72.10;;;16.28;54.32;102600.63;5051928;28;20197;-58
2022/09/21 05:50:41;;;;;;;8.30;3.90;;;13.60;72.00;;;16.33;53.99;102602.78;5051587;28;20231;-58
2022/09/21 05:53:38;;;;;;;8.20;4.00;;;13.70;71.50;;;16.33;53.35;102602.78;5051761;28;20222;-58
2022/09/21 05:56:23;;;;;;;8.10;4.50;;;13.70;70.90;;;16.31;53.33;102600.28;5051391;28;20595;-57
2022/09/21 05:59:05;;;;;;;5.70;4.07;;;13.70;70.90;;;16.28;53.92;102598.78;5051578;28;20222;-59
2022/09/21 06:01:57;;;;;;;5.30;3.93;;;13.60;71.10;;;16.31;53.53;102599.47;5050146;28;20202;-60
2022/09/21 06:04:25;;;;;;;15.87;10.40;;;13.60;71.30;;;16.38;53.96;102601.28;5051127;28;20182;-59
2022/09/21 06:06:53;;;;;;;7.53;5.00;;;13.70;71.60;;;16.45;53.34;102599.59;5051538;28;20186;-59
2022/09/21 06:09:21;;;;;;;7.47;4.70;;;13.70;71.40;;;16.52;53.26;102590.00;5051604;28;20190;-57
2022/09/21 06:11:48;;;;;;;7.23;4.23;;;13.70;71.10;;;16.55;53.20;102602.97;5051090;28;20193;-59
2022/09/21 06:14:16;;;;;;;7.37;4.83;;;13.80;71.30;;;16.62;53.22;102603.09;5050857;28;20220;-59
2022/09/21 06:16:43;;;;;;;7.67;4.53;;;13.80;71.30;;;16.67;53.01;102611.41;5051605;28;20231;-59
2022/09/21 06:19:11;;;;;;;7.07;4.83;;;13.80;70.90;;;16.70;52.95;102605.78;5051193;28;20232;-58
2022/09/21 06:21:39;;;;;;;6.70;4.10;;;13.80;70.80;;;16.74;52.68;102612.41;5050931;28;20214;-58
2022/09/21 06:24:08;;;;;;;9.47;5.33;;;13.90;71.00;;;16.78;52.58;102611.09;5051625;28;20182;-59
2022/09/21 06:26:35;;;;;;;5.67;4.40;;;13.90;70.50;;;16.78;52.61;102619.06;5052084;28;20194;-57
2022/09/21 06:29:03;;;;;;;7.87;5.17;;;13.90;70.30;;;16.77;52.42;102612.06;5052594;28;20645;-58
2022/09/21 06:31:31;;;;;;;5.83;4.33;;;13.90;70.40;;;16.76;52.67;102613.06;5051099;28;20512;-58
2022/09/21 06:33:59;;;;;;;7.00;5.17;;;13.80;70.60;;;16.77;52.40;102612.91;5050331;28;20232;-58
2022/09/21 06:36:26;;;;;;;5.80;4.07;;;13.80;70.50;;;16.75;52.24;102608.75;5051909;28;20197;-59
2022/09/21 06:38:54;;;;;;;7.07;4.20;;;13.90;70.30;;;16.69;52.37;102610.25;5050942;28;20553;-59
2022/09/21 06:41:22;;;;;;;7.80;3.93;;;13.80;70.80;;;16.63;52.21;102607.44;5049706;28;20288;-57
2022/09/21 06:43:54;;;;;;;8.70;4.47;;;13.70;69.90;;;16.55;52.24;102612.75;5050773;28;20584;-59
2022/09/21 06:46:21;;;;;;;5.77;4.27;;;13.70;70.10;;;16.48;52.50;102617.88;5051739;28;20235;-58
2022/09/21 06:48:49;;;;;;;6.80;4.10;;;13.60;70.20;;;16.52;52.52;102623.75;5051310;28;20193;-62
2022/09/21 06:51:16;;;;;;;7.57;4.43;;;13.60;70.70;;;16.70;52.85;102621.72;5051179;28;20647;-59
2022/09/21 06:53:44;;;;;;;7.70;3.83;;;13.60;71.40;;;16.98;52.79;102617.69;5051457;28;20206;-60
2022/09/21 06:56:11;;;;;;;6.47;3.30;;;13.70;71.60;;;17.34;52.52;102613.56;5051006;28;20734;-61
2022/09/21 06:58:40;;;;;;;5.03;3.27;;;13.90;71.60;;;17.80;52.13;102616.38;5050761;28;20218;-58
2022/09/21 07:01:11;;;;;;;4.63;3.43;;;14.20;71.30;;;18.34;51.32;102620.66;5050395;28;20206;-59
2022/09/21 07:03:41;;;;;;;8.13;3.80;;;14.60;70.40;;;19.02;49.59;102617.88;5051078;28;20206;-59
2022/09/21 07:06:12;;;;;;;5.67;3.63;;;15.00;69.10;;;19.76;48.41;102618.63;5051026;28;20194;-57
2022/09/21 07:08:40;;;;;;;7.97;4.13;;;15.60;68.40;;;20.55;46.02;102625.63;5050537;28;20186;-59
2022/09/21 07:11:28;;;;;;;12.13;4.53;;;16.10;66.50;;;21.23;44.41;102614.97;5049546;28;20194;-59
2022/09/21 07:13:57;;;;;;;6.13;3.77;;;16.70;63.80;;;21.66;43.04;102618.25;5050963;28;20610;-59
2022/09/21 07:16:25;;;;;;;6.83;4.40;;;17.10;62.20;;;21.92;42.68;102617.50;5051498;28;20236;-58
2022/09/21 07:18:55;;;;;;;4.53;3.67;;;17.40;60.90;;;22.27;42.13;102619.84;5051847;28;20691;-61
2022/09/21 07:21:36;;;;;;;6.57;3.47;;;17.70;60.70;;;22.94;40.57;102626.06;5051067;28;20243;-59
2022/09/21 07:24:04;;;;;;;11.40;4.90;;;18.00;59.70;;;23.58;39.38;102625.00;5050633;28;20199;-59
2022/09/21 07:26:37;;;;;;;7.07;4.93;;;18.40;58.80;;;24.15;37.74;102632.16;5054065;28;20196;-59
2022/09/21 07:29:06;;;;;;;8.10;4.00;;;18.80;57.20;;;24.80;36.46;102632.69;5054055;28;20189;-58
2022/09/21 07:31:34;;;;;;;8.50;5.00;;;19.30;56.20;;;25.35;35.61;102634.38;5053367;28;20186;-62
2022/09/21 07:34:01;;;;;;;8.10;4.27;;;19.70;55.00;;;25.41;34.81;102628.06;5053978;28;20194;-57
2022/09/21 07:36:29;;;;;;;6.33;3.43;;;20.00;53.60;;;25.06;34.61;102627.03;5054786;28;20651;-58
2022/09/21 07:38:56;;;;;;;7.03;3.40;;;20.10;52.40;;;24.54;35.70;102624.81;5052654;28;20232;-58
2022/09/21 07:41:23;;;;;;;4.47;3.00;;;20.00;52.00;;;23.98;36.10;102636.41;5053653;28;20256;-58
2022/09/21 07:43:52;;;;;;;7.47;3.20;;;19.70;51.70;;;23.42;36.35;102635.44;5053604;28;20236;-60
2022/09/21 07:46:20;;;;;;;4.70;2.53;;;19.50;51.60;;;22.87;37.16;102632.25;5054009;28;20216;-57
2022/09/21 07:48:47;;;;;;;6.70;4.13;;;19.20;53.00;;;22.34;38.45;102630.59;5054938;28;20236;-58
2022/09/21 07:51:15;;;;;;;6.50;3.53;;;18.90;53.10;;;21.87;39.13;102633.41;5055061;28;20593;-61
2022/09/21 07:53:43;;;;;;;5.97;3.67;;;18.50;53.80;;;21.54;39.71;102630.56;5055911;28;20214;-59
2022/09/21 07:56:14;;;;;;;5.90;3.77;;;18.20;55.40;;;21.32;40.14;102629.84;5055739;28;20193;-58
2022/09/21 08:01:30;;;;;;;5.77;4.43;;;17.80;56.10;;;21.00;41.50;102629.63;5055007;28;20228;-58
2022/09/21 08:03:58;;;;;;;6.80;3.43;;;17.70;56.90;;;20.93;41.53;102634.97;5054764;28;20216;-59
2022/09/21 08:06:29;;;;;;;8.70;3.27;;;17.50;57.40;;;20.86;41.31;102632.25;5054088;28;20202;-58
2022/09/21 08:08:57;;;;;;;5.30;3.30;;;17.40;57.30;;;20.90;41.47;102638.03;5054217;28;20253;-58
2022/09/21 08:11:26;;;;;;;5.07;2.80;;;17.40;57.70;;;21.20;41.72;102627.94;5053330;28;20296;-57
2022/09/21 08:13:57;;;;;;;8.80;3.37;;;17.40;58.10;;;22.07;40.89;102639.63;5053413;28;20212;-59
2022/09/21 08:16:26;;;;;;;8.50;3.87;;;17.50;58.80;;;23.33;39.13;102634.00;5053591;28;20189;-59
2022/09/21 08:18:55;;;;;;;5.30;3.27;;;17.90;58.80;;;24.70;37.15;102640.41;5053089;28;20218;-58
2022/09/21 08:21:22;;;;;;;6.60;2.37;;;18.60;59.00;;;25.98;35.18;102639.38;5051532;28;20220;-58
2022/09/21 08:23:50;;;;;;;4.37;2.57;;;19.30;56.80;;;27.12;33.82;102636.22;5052085;28;20713;-58
2022/09/21 08:26:19;;;;;;;5.97;3.20;;;20.20;55.50;;;28.28;32.05;102641.22;5053479;28;20193;-57
2022/09/21 08:28:49;;;;;;;5.20;3.07;;;21.00;53.40;;;29.39;30.04;102633.66;5053209;28;20193;-58
2022/09/21 08:31:18;;;;;;;4.03;2.53;;;21.90;51.50;;;30.29;28.52;102638.38;5052319;28;20218;-59
2022/09/21 08:33:46;;;;;;;4.03;2.53;;;22.70;49.20;;;30.95;28.63;102641.63;5052939;28;20217;-59
2022/09/21 08:36:15;;;;;;;4.20;2.77;;;23.50;48.60;;;31.64;27.23;102639.47;5052664;28;20727;-58
2022/09/21 08:38:43;;;;;;;3.40;3.10;;;24.30;47.00;;;32.39;25.93;102647.75;5052968;28;20210;-60
2022/09/21 08:41:17;;;;;;;5.03;3.00;;;24.90;44.70;;;33.03;25.01;102639.75;5052479;28;20189;-58
2022/09/21 08:43:51;;;;;;;4.30;3.47;;;25.50;42.40;;;33.60;24.27;102641.97;5052663;28;20590;-58
2022/09/21 08:46:24;;;;;;;5.17;2.93;;;26.10;41.40;;;34.00;23.53;102644.41;5052761;28;20186;-60
2022/09/21 08:48:58;;;;;;;5.33;2.40;;;26.60;40.00;;;34.45;23.32;102634.19;5052702;28;20666;-60
2022/09/21 08:51:35;;;;;;;5.50;2.57;;;27.00;38.70;;;34.87;22.51;102633.53;5052704;28;20193;-59
2022/09/21 08:54:14;;;;;;;5.43;3.90;;;27.40;37.90;;;35.24;21.91;102634.44;5051544;28;20189;-59
2022/09/21 08:56:41;;;;;;;4.50;2.43;;;27.70;36.90;;;35.52;22.14;102640.16;5052416;28;20185;-59
2022/09/21 08:59:29;;;;;;;6.10;3.87;;;28.10;37.10;;;35.86;21.63;102640.69;5044581;28;20237;-58
2022/09/21 09:02:11;;;;;;;5.63;2.63;;;28.40;35.20;;;36.16;21.13;102642.97;5031592;28;20288;-60
2022/09/21 09:04:56;;;;;;;4.07;3.10;;;28.70;35.30;;;36.57;20.92;102641.16;5034434;28;20267;-60
2022/09/21 09:07:48;;;;;;;5.53;3.33;;;29.00;33.50;;;36.94;20.41;102642.94;5042665;28;20284;-59
2022/09/21 09:10:36;;;;;;;3.47;2.80;;;29.30;33.20;;;37.20;20.42;102652.28;5046820;28;20210;-61
2022/09/21 09:13:27;;;;;;;8.15;3.40;;;29.60;33.10;;;37.49;19.95;102651.16;5048186;28;20302;-60
2022/09/21 09:16:13;;;;;;;4.70;3.40;;;30.00;32.70;;;37.65;20.02;102652.41;5048128;28;20197;-58
2022/09/21 09:18:48;;;;;;;4.97;3.20;;;30.30;32.40;;;37.94;19.25;102653.63;5049651;28;20238;-59
2022/09/21 09:21:22;;;;;;;4.57;3.60;;;30.60;30.90;;;38.11;18.63;102658.44;5045753;28;20263;-59
2022/09/21 09:24:06;;;;;;;4.88;2.42;;;30.90;30.70;;;38.39;18.51;102653.66;5048325;28;20214;-59
2022/09/21 09:26:41;;;;;;;5.70;2.22;;;31.20;29.70;;;38.39;18.42;102642.63;5048591;28;20194;-60
2022/09/21 09:29:21;;;;;;;3.45;1.75;;;31.20;29.30;;;38.27;17.76;102645.13;5044612;28;20190;-59
2022/09/21 09:31:53;;;;;;;3.78;1.92;;;31.30;28.60;;;38.20;18.18;102648.34;5047240;28;20529;-58
2022/09/21 09:34:29;;;;;;;5.97;2.55;;;31.40;28.80;;;38.25;18.12;102639.13;5048209;28;20201;-60
2022/09/21 09:37:07;;;;;;;4.53;1.92;;;31.50;28.60;;;38.56;17.82;102643.50;5044757;28;20681;-60
2022/09/21 09:39:36;;;;;;;3.92;2.30;;;31.50;28.20;;;38.88;17.39;102634.09;5046961;28;20236;-57
2022/09/21 09:42:32;;;;;;;4.03;2.47;;;31.60;28.30;;;38.97;17.68;102642.38;5049741;28;20280;-59
2022/09/21 09:45:30;;;;;;;3.72;1.98;;;31.70;28.10;;;38.93;16.81;102641.41;5048865;28;20202;-58
2022/09/21 09:48:21;;;;;;;3.50;2.25;;;31.90;27.40;;;38.79;16.92;102641.53;5047259;28;20224;-59
2022/09/21 09:50:48;;;;;;;5.75;2.50;;;32.10;27.10;;;38.63;17.10;102631.25;5047461;28;20666;-58
2022/09/21 09:53:22;;;;;;;4.97;3.05;;;32.10;26.90;;;38.56;17.74;102642.72;5045292;28;20816;-59
2022/09/21 09:55:53;;;;;;;4.70;3.13;;;32.30;27.60;;;38.65;17.78;102640.00;5050135;28;20239;-61
2022/09/21 09:58:30;;;;;;;4.72;2.20;;;32.40;27.60;;;38.85;17.26;102637.50;5048631;28;20241;-61
2022/09/21 10:00:57;;;;;;;3.58;2.50;;;32.40;27.00;;;39.10;16.88;102635.94;5049136;28;20252;-61
2022/09/21 10:03:27;;;;;;;3.70;2.10;;;32.40;26.90;;;39.43;16.30;102648.19;5047617;28;20260;-61
2022/09/21 10:05:55;;;;;;;3.20;2.03;;;32.50;26.60;;;39.47;16.45;102645.59;5047644;28;20729;-58
2022/09/21 10:08:43;;;;;;;4.00;2.00;;;32.50;26.50;;;39.58;16.10;102641.38;5048764;28;20190;-59
2022/09/21 10:11:15;;;;;;;4.13;2.10;;;32.60;26.10;;;39.79;15.68;102643.19;5046873;28;20213;-60
2022/09/21 10:13:46;;;;;;;2.90;1.80;;;32.70;25.70;;;39.74;15.54;102651.63;5050297;28;20229;-59
2022/09/21 10:16:19;;;;;;;3.85;2.33;;;32.80;25.30;;;39.52;16.18;102643.47;5050052;28;20296;-58
2022/09/21 10:18:51;;;;;;;3.83;2.05;;;32.90;26.10;;;39.59;16.39;102640.25;5046999;28;20229;-58
2022/09/21 10:21:23;;;;;;;3.90;2.13;;;33.00;26.00;;;39.67;15.83;102645.81;5049973;28;20693;-60
2022/09/21 10:23:58;;;;;;;4.30;2.40;;;33.00;25.50;;;39.43;16.22;102645.44;5049469;28;20214;-61
2022/09/21 10:26:35;;;;;;;3.67;2.78;;;33.00;25.50;;;38.56;16.00;102638.00;5049538;28;20842;-59
2022/09/21 10:29:20;;;;;;;3.47;1.95;;;32.90;24.90;;;37.11;17.72;102642.34;5047890;28;20213;-61
2022/09/21 10:31:56;;;;;;;4.18;2.15;;;32.40;24.90;;;35.71;18.09;102638.19;5049677;28;20307;-61
2022/09/21 10:34:25;;;;;;;4.47;1.90;;;31.80;25.00;;;34.48;18.99;102647.31;5046624;28;20630;-58
2022/09/21 10:36:55;;;;;;;4.37;1.90;;;31.00;25.30;;;33.08;19.50;102645.19;5050853;28;20252;-58